Terminal Aerodrome Forecast
Issued by NWS Charleston, WV

Home | Current Version | Previous Version | Text Only | Print | Product List | Glossary On
Versions: 1 2 3 4 5 6 7 8 9 10 11 12 13 14 15 16 17 18 19 20 21 22 23
000
FTUS41 KRLX 300100 CCA
TAFPKB
TAF COR
KPKB 300117Z 3001/3024 17007KT P6SM BKN120
     FM300300 20013G25KT P6SM -RA OVC060
     FM300500 22009KT P6SM -SHRA OVC040
     FM300900 24008KT P6SM OVC045
     FM301300 27008KT P6SM BKN035
     FM301500 28009KT P6SM SCT035
     FM301900 27012G18KT P6SM SKC
     FM302300 26008KT P6SM SKC=

USA.gov is the U.S. government's official web portal to all federal, state and local government web resources and services.